sensor_id;sensor_type;location;lat;lon;timestamp;P1;durP1;ratioP1;P2;durP2;ratioP2
70715;SDS011;59053;50.832;12.882;2022-10-16T00:00:42;2.35;;;0.90;;
70715;SDS011;59053;50.832;12.882;2022-10-16T00:03:08;2.22;;;0.88;;
70715;SDS011;59053;50.832;12.882;2022-10-16T00:08:48;3.28;;;0.80;;
70715;SDS011;59053;50.832;12.882;2022-10-16T00:11:17;1.20;;;0.90;;
70715;SDS011;59053;50.832;12.882;2022-10-16T00:13:43;1.23;;;0.90;;
70715;SDS011;59053;50.832;12.882;2022-10-16T00:16:10;0.80;;;0.80;;
70715;SDS011;59053;50.832;12.882;2022-10-16T00:18:41;1.98;;;0.80;;
70715;SDS011;59053;50.832;12.882;2022-10-16T00:21:08;1.07;;;0.80;;
70715;SDS011;59053;50.832;12.882;2022-10-16T00:23:34;1.00;;;0.70;;
70715;SDS011;59053;50.832;12.882;2022-10-16T00:26:03;1.30;;;0.70;;
70715;SDS011;59053;50.832;12.882;2022-10-16T00:31:16;2.13;;;0.60;;
70715;SDS011;59053;50.832;12.882;2022-10-16T00:39:41;1.55;;;0.90;;
70715;SDS011;59053;50.832;12.882;2022-10-16T00:42:09;0.70;;;0.70;;
70715;SDS011;59053;50.832;12.882;2022-10-16T00:44:46;1.60;;;0.70;;
70715;SDS011;59053;50.832;12.882;2022-10-16T00:47:12;0.60;;;0.60;;
70715;SDS011;59053;50.832;12.882;2022-10-16T00:49:42;0.90;;;0.70;;
70715;SDS011;59053;50.832;12.882;2022-10-16T00:52:08;0.90;;;0.73;;
70715;SDS011;59053;50.832;12.882;2022-10-16T00:54:44;1.38;;;0.68;;
70715;SDS011;59053;50.832;12.882;2022-10-16T00:57:11;2.38;;;0.80;;
70715;SDS011;59053;50.832;12.882;2022-10-16T00:59:37;2.03;;;0.70;;
70715;SDS011;59053;50.832;12.882;2022-10-16T01:02:03;1.00;;;0.80;;
70715;SDS011;59053;50.832;12.882;2022-10-16T01:04:34;2.30;;;0.80;;
70715;SDS011;59053;50.832;12.882;2022-10-16T01:09:43;1.13;;;0.80;;
70715;SDS011;59053;50.832;12.882;2022-10-16T01:14:46;1.30;;;0.70;;
70715;SDS011;59053;50.832;12.882;2022-10-16T01:17:15;1.13;;;0.70;;
70715;SDS011;59053;50.832;12.882;2022-10-16T01:22:29;1.10;;;0.70;;
70715;SDS011;59053;50.832;12.882;2022-10-16T01:24:57;0.60;;;0.60;;
70715;SDS011;59053;50.832;12.882;2022-10-16T01:30:54;0.95;;;0.70;;
70715;SDS011;59053;50.832;12.882;2022-10-16T01:33:20;1.00;;;0.70;;
70715;SDS011;59053;50.832;12.882;2022-10-16T01:35:52;0.70;;;0.70;;
70715;SDS011;59053;50.832;12.882;2022-10-16T01:38:24;1.45;;;0.60;;
70715;SDS011;59053;50.832;12.882;2022-10-16T01:41:05;0.73;;;0.73;;
70715;SDS011;59053;50.832;12.882;2022-10-16T01:43:33;1.02;;;0.80;;
70715;SDS011;59053;50.832;12.882;2022-10-16T01:46:00;1.08;;;0.70;;
70715;SDS011;59053;50.832;12.882;2022-10-16T01:48:26;2.40;;;0.80;;
70715;SDS011;59053;50.832;12.882;2022-10-16T01:50:54;0.93;;;0.70;;
70715;SDS011;59053;50.832;12.882;2022-10-16T01:53:20;1.70;;;0.68;;
70715;SDS011;59053;50.832;12.882;2022-10-16T01:56:01;1.77;;;0.75;;
70715;SDS011;59053;50.832;12.882;2022-10-16T02:04:29;0.68;;;0.68;;
70715;SDS011;59053;50.832;12.882;2022-10-16T02:13:53;1.08;;;0.80;;
70715;SDS011;59053;50.832;12.882;2022-10-16T02:19:10;1.42;;;0.77;;
70715;SDS011;59053;50.832;12.882;2022-10-16T02:21:58;1.00;;;0.90;;
70715;SDS011;59053;50.832;12.882;2022-10-16T02:27:23;0.90;;;0.90;;
70715;SDS011;59053;50.832;12.882;2022-10-16T02:29:52;1.63;;;0.90;;
70715;SDS011;59053;50.832;12.882;2022-10-16T02:32:31;1.92;;;0.80;;
70715;SDS011;59053;50.832;12.882;2022-10-16T02:34:57;1.10;;;0.90;;
70715;SDS011;59053;50.832;12.882;2022-10-16T02:37:24;1.92;;;0.90;;
70715;SDS011;59053;50.832;12.882;2022-10-16T02:39:50;1.67;;;0.97;;
70715;SDS011;59053;50.832;12.882;2022-10-16T02:42:17;1.23;;;0.90;;
70715;SDS011;59053;50.832;12.882;2022-10-16T02:44:42;1.50;;;0.90;;
70715;SDS011;59053;50.832;12.882;2022-10-16T02:47:07;2.30;;;0.90;;
70715;SDS011;59053;50.832;12.882;2022-10-16T02:49:33;1.30;;;0.90;;
70715;SDS011;59053;50.832;12.882;2022-10-16T02:51:58;1.13;;;1.02;;
70715;SDS011;59053;50.832;12.882;2022-10-16T02:54:23;1.50;;;1.00;;
70715;SDS011;59053;50.832;12.882;2022-10-16T02:59:41;1.85;;;0.90;;
70715;SDS011;59053;50.832;12.882;2022-10-16T03:02:07;3.00;;;0.97;;
70715;SDS011;59053;50.832;12.882;2022-10-16T03:04:32;1.70;;;0.83;;
70715;SDS011;59053;50.832;12.882;2022-10-16T03:06:57;2.90;;;0.90;;
70715;SDS011;59053;50.832;12.882;2022-10-16T03:13:05;1.20;;;1.10;;
70715;SDS011;59053;50.832;12.882;2022-10-16T03:15:31;1.33;;;1.13;;
70715;SDS011;59053;50.832;12.882;2022-10-16T03:20:40;1.42;;;1.10;;
70715;SDS011;59053;50.832;12.882;2022-10-16T03:23:06;1.53;;;1.10;;
70715;SDS011;59053;50.832;12.882;2022-10-16T03:28:47;1.70;;;1.00;;
70715;SDS011;59053;50.832;12.882;2022-10-16T03:31:30;1.98;;;1.10;;
70715;SDS011;59053;50.832;12.882;2022-10-16T03:33:55;1.52;;;1.10;;
70715;SDS011;59053;50.832;12.882;2022-10-16T03:36:20;2.57;;;1.13;;
70715;SDS011;59053;50.832;12.882;2022-10-16T03:41:41;1.80;;;1.10;;
70715;SDS011;59053;50.832;12.882;2022-10-16T03:44:06;1.20;;;1.00;;
70715;SDS011;59053;50.832;12.882;2022-10-16T03:46:31;1.20;;;0.93;;
70715;SDS011;59053;50.832;12.882;2022-10-16T03:48:57;1.43;;;1.20;;
70715;SDS011;59053;50.832;12.882;2022-10-16T03:51:25;2.08;;;1.20;;
70715;SDS011;59053;50.832;12.882;2022-10-16T03:53:51;1.20;;;1.00;;
70715;SDS011;59053;50.832;12.882;2022-10-16T03:56:22;1.90;;;1.00;;
70715;SDS011;59053;50.832;12.882;2022-10-16T03:58:47;1.43;;;1.00;;
70715;SDS011;59053;50.832;12.882;2022-10-16T04:01:12;0.97;;;0.90;;
70715;SDS011;59053;50.832;12.882;2022-10-16T04:03:38;1.30;;;1.03;;
70715;SDS011;59053;50.832;12.882;2022-10-16T04:06:16;3.17;;;1.07;;
70715;SDS011;59053;50.832;12.882;2022-10-16T04:08:44;2.47;;;1.10;;
70715;SDS011;59053;50.832;12.882;2022-10-16T04:11:15;1.83;;;1.10;;
70715;SDS011;59053;50.832;12.882;2022-10-16T04:13:41;1.65;;;1.08;;
70715;SDS011;59053;50.832;12.882;2022-10-16T04:16:06;1.50;;;1.00;;
70715;SDS011;59053;50.832;12.882;2022-10-16T04:18:32;1.17;;;0.90;;
70715;SDS011;59053;50.832;12.882;2022-10-16T04:21:13;2.23;;;1.10;;
70715;SDS011;59053;50.832;12.882;2022-10-16T04:23:38;1.70;;;0.90;;
70715;SDS011;59053;50.832;12.882;2022-10-16T04:26:18;1.00;;;0.90;;
70715;SDS011;59053;50.832;12.882;2022-10-16T04:28:43;1.48;;;1.00;;
70715;SDS011;59053;50.832;12.882;2022-10-16T04:31:16;1.67;;;0.90;;
70715;SDS011;59053;50.832;12.882;2022-10-16T04:37:16;1.25;;;0.80;;
70715;SDS011;59053;50.832;12.882;2022-10-16T04:39:41;0.80;;;0.80;;
70715;SDS011;59053;50.832;12.882;2022-10-16T04:42:06;1.03;;;0.87;;
70715;SDS011;59053;50.832;12.882;2022-10-16T04:44:31;0.80;;;0.80;;
70715;SDS011;59053;50.832;12.882;2022-10-16T04:47:04;4.50;;;0.90;;
70715;SDS011;59053;50.832;12.882;2022-10-16T04:49:45;0.90;;;0.80;;
70715;SDS011;59053;50.832;12.882;2022-10-16T04:52:10;0.70;;;0.70;;
70715;SDS011;59053;50.832;12.882;2022-10-16T04:57:41;1.10;;;0.70;;
70715;SDS011;59053;50.832;12.882;2022-10-16T05:00:07;0.80;;;0.80;;
70715;SDS011;59053;50.832;12.882;2022-10-16T05:05:43;1.58;;;0.80;;
70715;SDS011;59053;50.832;12.882;2022-10-16T05:08:16;1.48;;;0.80;;
70715;SDS011;59053;50.832;12.882;2022-10-16T05:10:47;1.60;;;0.70;;
70715;SDS011;59053;50.832;12.882;2022-10-16T05:13:13;2.47;;;0.80;;
70715;SDS011;59053;50.832;12.882;2022-10-16T05:15:38;1.13;;;0.70;;
70715;SDS011;59053;50.832;12.882;2022-10-16T05:18:04;2.33;;;0.90;;
70715;SDS011;59053;50.832;12.882;2022-10-16T05:20:30;2.78;;;0.90;;
70715;SDS011;59053;50.832;12.882;2022-10-16T05:22:55;3.43;;;0.80;;
70715;SDS011;59053;50.832;12.882;2022-10-16T05:28:49;1.50;;;0.70;;
70715;SDS011;59053;50.832;12.882;2022-10-16T05:31:16;2.25;;;0.70;;
70715;SDS011;59053;50.832;12.882;2022-10-16T05:33:42;0.80;;;0.80;;
70715;SDS011;59053;50.832;12.882;2022-10-16T05:36:17;2.65;;;0.80;;
70715;SDS011;59053;50.832;12.882;2022-10-16T05:41:18;0.70;;;0.70;;
70715;SDS011;59053;50.832;12.882;2022-10-16T05:43:47;0.80;;;0.80;;
70715;SDS011;59053;50.832;12.882;2022-10-16T05:49:12;1.48;;;0.60;;
70715;SDS011;59053;50.832;12.882;2022-10-16T05:51:37;0.80;;;0.70;;
70715;SDS011;59053;50.832;12.882;2022-10-16T05:54:02;2.87;;;0.80;;
70715;SDS011;59053;50.832;12.882;2022-10-16T05:56:28;1.20;;;0.80;;
70715;SDS011;59053;50.832;12.882;2022-10-16T05:58:53;0.80;;;0.77;;
70715;SDS011;59053;50.832;12.882;2022-10-16T06:01:21;0.93;;;0.80;;
70715;SDS011;59053;50.832;12.882;2022-10-16T06:03:49;1.20;;;0.80;;
70715;SDS011;59053;50.832;12.882;2022-10-16T06:06:15;0.70;;;0.60;;
70715;SDS011;59053;50.832;12.882;2022-10-16T06:08:41;0.80;;;0.70;;
70715;SDS011;59053;50.832;12.882;2022-10-16T06:14:35;0.80;;;0.70;;
70715;SDS011;59053;50.832;12.882;2022-10-16T06:20:01;0.65;;;0.65;;
70715;SDS011;59053;50.832;12.882;2022-10-16T06:29:22;0.97;;;0.70;;
70715;SDS011;59053;50.832;12.882;2022-10-16T06:31:50;0.70;;;0.70;;
70715;SDS011;59053;50.832;12.882;2022-10-16T06:34:15;0.70;;;0.70;;
70715;SDS011;59053;50.832;12.882;2022-10-16T06:36:53;0.80;;;0.70;;
70715;SDS011;59053;50.832;12.882;2022-10-16T06:39:33;0.80;;;0.60;;
70715;SDS011;59053;50.832;12.882;2022-10-16T06:42:17;0.65;;;0.65;;
70715;SDS011;59053;50.832;12.882;2022-10-16T06:44:42;1.90;;;0.70;;
70715;SDS011;59053;50.832;12.882;2022-10-16T06:47:07;0.80;;;0.60;;
70715;SDS011;59053;50.832;12.882;2022-10-16T06:49:32;2.20;;;0.80;;
70715;SDS011;59053;50.832;12.882;2022-10-16T06:55:26;0.70;;;0.70;;
70715;SDS011;59053;50.832;12.882;2022-10-16T06:57:53;1.87;;;0.63;;
70715;SDS011;59053;50.832;12.882;2022-10-16T07:00:19;1.05;;;0.80;;
70715;SDS011;59053;50.832;12.882;2022-10-16T07:02:45;1.20;;;0.70;;
70715;SDS011;59053;50.832;12.882;2022-10-16T07:05:11;0.80;;;0.67;;
70715;SDS011;59053;50.832;12.882;2022-10-16T07:07:36;5.75;;;0.90;;
70715;SDS011;59053;50.832;12.882;2022-10-16T07:10:01;0.77;;;0.70;;
70715;SDS011;59053;50.832;12.882;2022-10-16T07:12:27;1.90;;;0.80;;
70715;SDS011;59053;50.832;12.882;2022-10-16T07:14:52;1.13;;;0.70;;
70715;SDS011;59053;50.832;12.882;2022-10-16T07:17:19;2.08;;;0.80;;
70715;SDS011;59053;50.832;12.882;2022-10-16T07:19:44;1.93;;;0.70;;
70715;SDS011;59053;50.832;12.882;2022-10-16T07:22:10;1.20;;;0.80;;
70715;SDS011;59053;50.832;12.882;2022-10-16T07:24:41;2.60;;;0.90;;
70715;SDS011;59053;50.832;12.882;2022-10-16T07:27:06;1.00;;;0.90;;
70715;SDS011;59053;50.832;12.882;2022-10-16T07:32:38;1.23;;;0.98;;
70715;SDS011;59053;50.832;12.882;2022-10-16T07:35:04;0.98;;;0.88;;
70715;SDS011;59053;50.832;12.882;2022-10-16T07:37:29;1.60;;;1.20;;
70715;SDS011;59053;50.832;12.882;2022-10-16T07:39:54;1.30;;;1.10;;
70715;SDS011;59053;50.832;12.882;2022-10-16T07:42:33;2.80;;;1.10;;
70715;SDS011;59053;50.832;12.882;2022-10-16T07:47:42;1.52;;;1.10;;
70715;SDS011;59053;50.832;12.882;2022-10-16T07:50:07;1.37;;;1.10;;
70715;SDS011;59053;50.832;12.882;2022-10-16T07:52:48;3.53;;;1.33;;
70715;SDS011;59053;50.832;12.882;2022-10-16T07:58:53;3.22;;;1.20;;
70715;SDS011;59053;50.832;12.882;2022-10-16T08:01:26;2.75;;;1.10;;
70715;SDS011;59053;50.832;12.882;2022-10-16T08:03:51;1.23;;;0.85;;
70715;SDS011;59053;50.832;12.882;2022-10-16T08:06:35;1.37;;;1.10;;
70715;SDS011;59053;50.832;12.882;2022-10-16T08:09:16;1.23;;;1.00;;
70715;SDS011;59053;50.832;12.882;2022-10-16T08:11:59;1.15;;;1.05;;
70715;SDS011;59053;50.832;12.882;2022-10-16T08:14:29;2.20;;;1.20;;
70715;SDS011;59053;50.832;12.882;2022-10-16T08:17:04;1.50;;;1.20;;
70715;SDS011;59053;50.832;12.882;2022-10-16T08:19:45;3.03;;;1.27;;
70715;SDS011;59053;50.832;12.882;2022-10-16T08:22:31;5.25;;;1.50;;
70715;SDS011;59053;50.832;12.882;2022-10-16T08:25:19;1.45;;;1.20;;
70715;SDS011;59053;50.832;12.882;2022-10-16T08:28:10;1.73;;;1.33;;
70715;SDS011;59053;50.832;12.882;2022-10-16T08:30:40;2.50;;;1.20;;
70715;SDS011;59053;50.832;12.882;2022-10-16T08:33:05;1.20;;;1.10;;
70715;SDS011;59053;50.832;12.882;2022-10-16T08:38:29;3.78;;;1.30;;
70715;SDS011;59053;50.832;12.882;2022-10-16T08:41:19;1.60;;;1.30;;
70715;SDS011;59053;50.832;12.882;2022-10-16T08:43:43;2.92;;;1.20;;
70715;SDS011;59053;50.832;12.882;2022-10-16T08:49:00;2.88;;;1.25;;
70715;SDS011;59053;50.832;12.882;2022-10-16T08:51:26;1.48;;;1.30;;
70715;SDS011;59053;50.832;12.882;2022-10-16T08:53:56;1.55;;;1.10;;
70715;SDS011;59053;50.832;12.882;2022-10-16T08:56:35;2.15;;;1.10;;
70715;SDS011;59053;50.832;12.882;2022-10-16T08:59:00;3.53;;;1.10;;
70715;SDS011;59053;50.832;12.882;2022-10-16T09:12:13;2.03;;;1.13;;
70715;SDS011;59053;50.832;12.882;2022-10-16T09:18:00;1.05;;;1.00;;
70715;SDS011;59053;50.832;12.882;2022-10-16T09:25:48;1.85;;;1.00;;
70715;SDS011;59053;50.832;12.882;2022-10-16T09:28:15;1.70;;;1.10;;
70715;SDS011;59053;50.832;12.882;2022-10-16T09:30:41;1.70;;;1.00;;
70715;SDS011;59053;50.832;12.882;2022-10-16T09:33:27;1.00;;;0.90;;
70715;SDS011;59053;50.832;12.882;2022-10-16T09:48:57;1.63;;;1.00;;
70715;SDS011;59053;50.832;12.882;2022-10-16T09:51:32;1.15;;;1.05;;
70715;SDS011;59053;50.832;12.882;2022-10-16T09:56:42;1.60;;;1.10;;
70715;SDS011;59053;50.832;12.882;2022-10-16T09:59:23;2.03;;;1.00;;
70715;SDS011;59053;50.832;12.882;2022-10-16T10:01:54;1.90;;;1.10;;
70715;SDS011;59053;50.832;12.882;2022-10-16T10:07:16;1.83;;;1.00;;
70715;SDS011;59053;50.832;12.882;2022-10-16T10:09:56;1.10;;;1.00;;
70715;SDS011;59053;50.832;12.882;2022-10-16T10:12:23;1.42;;;1.17;;
70715;SDS011;59053;50.832;12.882;2022-10-16T10:14:53;1.75;;;1.30;;
70715;SDS011;59053;50.832;12.882;2022-10-16T10:17:23;1.85;;;1.10;;
70715;SDS011;59053;50.832;12.882;2022-10-16T10:19:55;1.67;;;1.10;;
70715;SDS011;59053;50.832;12.882;2022-10-16T10:25:37;3.55;;;1.10;;
70715;SDS011;59053;50.832;12.882;2022-10-16T10:43:09;2.35;;;1.17;;
70715;SDS011;59053;50.832;12.882;2022-10-16T10:54:51;2.42;;;0.98;;
70715;SDS011;59053;50.832;12.882;2022-10-16T10:57:21;1.17;;;1.05;;
70715;SDS011;59053;50.832;12.882;2022-10-16T10:59:53;3.33;;;1.10;;
70715;SDS011;59053;50.832;12.882;2022-10-16T11:10:28;1.83;;;1.08;;
70715;SDS011;59053;50.832;12.882;2022-10-16T11:13:09;1.98;;;1.02;;
70715;SDS011;59053;50.832;12.882;2022-10-16T11:15:36;1.80;;;1.10;;
70715;SDS011;59053;50.832;12.882;2022-10-16T11:18:04;2.17;;;1.00;;
70715;SDS011;59053;50.832;12.882;2022-10-16T11:20:42;4.78;;;1.10;;
70715;SDS011;59053;50.832;12.882;2022-10-16T11:23:27;1.10;;;1.00;;
70715;SDS011;59053;50.832;12.882;2022-10-16T11:25:54;1.30;;;1.20;;
70715;SDS011;59053;50.832;12.882;2022-10-16T11:33:47;1.30;;;1.20;;
70715;SDS011;59053;50.832;12.882;2022-10-16T11:44:34;1.45;;;1.00;;
70715;SDS011;59053;50.832;12.882;2022-10-16T11:49:33;4.10;;;1.40;;
70715;SDS011;59053;50.832;12.882;2022-10-16T11:56:57;1.55;;;1.10;;
70715;SDS011;59053;50.832;12.882;2022-10-16T11:59:27;2.25;;;0.90;;
70715;SDS011;59053;50.832;12.882;2022-10-16T12:07:56;3.07;;;1.53;;
70715;SDS011;59053;50.832;12.882;2022-10-16T12:18:39;1.88;;;1.10;;
70715;SDS011;59053;50.832;12.882;2022-10-16T12:21:16;1.57;;;1.00;;
70715;SDS011;59053;50.832;12.882;2022-10-16T12:23:56;1.35;;;1.10;;
70715;SDS011;59053;50.832;12.882;2022-10-16T12:31:58;1.10;;;1.00;;
70715;SDS011;59053;50.832;12.882;2022-10-16T12:34:26;1.80;;;0.93;;
70715;SDS011;59053;50.832;12.882;2022-10-16T12:36:55;1.60;;;1.00;;
70715;SDS011;59053;50.832;12.882;2022-10-16T12:44:52;1.10;;;1.00;;
70715;SDS011;59053;50.832;12.882;2022-10-16T12:49:56;1.48;;;1.10;;
70715;SDS011;59053;50.832;12.882;2022-10-16T12:52:54;2.97;;;1.00;;
70715;SDS011;59053;50.832;12.882;2022-10-16T13:02:16;1.65;;;1.00;;
70715;SDS011;59053;50.832;12.882;2022-10-16T13:07:44;2.33;;;1.00;;
70715;SDS011;59053;50.832;12.882;2022-10-16T13:36:42;1.98;;;0.90;;
70715;SDS011;59053;50.832;12.882;2022-10-16T13:39:14;1.10;;;1.00;;
70715;SDS011;59053;50.832;12.882;2022-10-16T13:41:42;1.25;;;1.10;;
70715;SDS011;59053;50.832;12.882;2022-10-16T13:44:13;1.10;;;1.00;;
70715;SDS011;59053;50.832;12.882;2022-10-16T13:47:20;2.13;;;1.20;;
70715;SDS011;59053;50.832;12.882;2022-10-16T13:52:29;1.60;;;0.90;;
70715;SDS011;59053;50.832;12.882;2022-10-16T13:54:59;2.58;;;0.98;;
70715;SDS011;59053;50.832;12.882;2022-10-16T13:57:27;2.05;;;0.90;;
70715;SDS011;59053;50.832;12.882;2022-10-16T14:00:03;1.15;;;0.93;;
70715;SDS011;59053;50.832;12.882;2022-10-16T14:06:03;1.77;;;1.07;;
70715;SDS011;59053;50.832;12.882;2022-10-16T14:08:29;1.88;;;1.10;;
70715;SDS011;59053;50.832;12.882;2022-10-16T14:13:43;2.10;;;1.10;;
70715;SDS011;59053;50.832;12.882;2022-10-16T14:17:15;2.17;;;1.05;;
70715;SDS011;59053;50.832;12.882;2022-10-16T14:19:59;1.30;;;1.03;;
70715;SDS011;59053;50.832;12.882;2022-10-16T14:26:16;1.83;;;1.10;;
70715;SDS011;59053;50.832;12.882;2022-10-16T14:39:48;2.15;;;0.90;;
70715;SDS011;59053;50.832;12.882;2022-10-16T14:42:16;1.90;;;1.10;;
70715;SDS011;59053;50.832;12.882;2022-10-16T14:47:29;1.10;;;0.90;;
70715;SDS011;59053;50.832;12.882;2022-10-16T14:53:25;1.10;;;0.90;;
70715;SDS011;59053;50.832;12.882;2022-10-16T14:55:57;1.00;;;0.90;;
70715;SDS011;59053;50.832;12.882;2022-10-16T14:58:22;1.20;;;1.10;;
70715;SDS011;59053;50.832;12.882;2022-10-16T15:00:48;1.45;;;1.00;;
70715;SDS011;59053;50.832;12.882;2022-10-16T15:06:36;1.92;;;0.93;;
70715;SDS011;59053;50.832;12.882;2022-10-16T15:09:14;2.28;;;0.98;;
70715;SDS011;59053;50.832;12.882;2022-10-16T15:14:57;2.37;;;1.00;;
70715;SDS011;59053;50.832;12.882;2022-10-16T15:17:22;3.63;;;1.10;;
70715;SDS011;59053;50.832;12.882;2022-10-16T15:19:48;1.37;;;1.00;;
70715;SDS011;59053;50.832;12.882;2022-10-16T15:22:14;1.27;;;0.90;;
70715;SDS011;59053;50.832;12.882;2022-10-16T15:24:47;2.47;;;1.10;;
70715;SDS011;59053;50.832;12.882;2022-10-16T15:27:12;1.88;;;1.13;;
70715;SDS011;59053;50.832;12.882;2022-10-16T15:29:39;2.73;;;1.10;;
70715;SDS011;59053;50.832;12.882;2022-10-16T15:32:04;1.63;;;1.15;;
70715;SDS011;59053;50.832;12.882;2022-10-16T15:34:42;4.70;;;1.30;;
70715;SDS011;59053;50.832;12.882;2022-10-16T15:37:08;1.50;;;1.30;;
70715;SDS011;59053;50.832;12.882;2022-10-16T15:39:33;1.58;;;1.30;;
70715;SDS011;59053;50.832;12.882;2022-10-16T15:42:03;3.03;;;1.30;;
70715;SDS011;59053;50.832;12.882;2022-10-16T15:50:19;3.45;;;1.83;;
70715;SDS011;59053;50.832;12.882;2022-10-16T15:52:45;4.43;;;1.50;;
70715;SDS011;59053;50.832;12.882;2022-10-16T15:55:23;2.00;;;1.50;;
70715;SDS011;59053;50.832;12.882;2022-10-16T15:57:57;2.20;;;1.40;;
70715;SDS011;59053;50.832;12.882;2022-10-16T16:00:23;3.17;;;1.60;;
70715;SDS011;59053;50.832;12.882;2022-10-16T16:02:54;3.88;;;1.60;;
70715;SDS011;59053;50.832;12.882;2022-10-16T16:08:59;3.20;;;1.60;;
70715;SDS011;59053;50.832;12.882;2022-10-16T16:11:26;5.00;;;1.80;;
70715;SDS011;59053;50.832;12.882;2022-10-16T16:13:51;3.95;;;1.63;;
70715;SDS011;59053;50.832;12.882;2022-10-16T16:16:29;3.77;;;1.70;;
70715;SDS011;59053;50.832;12.882;2022-10-16T16:18:58;4.70;;;1.70;;
70715;SDS011;59053;50.832;12.882;2022-10-16T16:21:23;3.75;;;1.77;;
70715;SDS011;59053;50.832;12.882;2022-10-16T16:36:42;4.25;;;2.10;;
70715;SDS011;59053;50.832;12.882;2022-10-16T16:39:15;9.70;;;1.88;;
70715;SDS011;59053;50.832;12.882;2022-10-16T16:41:40;3.47;;;1.90;;
70715;SDS011;59053;50.832;12.882;2022-10-16T16:44:12;5.13;;;1.93;;
70715;SDS011;59053;50.832;12.882;2022-10-16T16:46:37;3.83;;;1.90;;
70715;SDS011;59053;50.832;12.882;2022-10-16T16:49:04;3.80;;;1.90;;
70715;SDS011;59053;50.832;12.882;2022-10-16T16:54:14;4.35;;;1.90;;
70715;SDS011;59053;50.832;12.882;2022-10-16T16:56:41;4.47;;;2.10;;
70715;SDS011;59053;50.832;12.882;2022-10-16T16:59:15;4.83;;;2.30;;
70715;SDS011;59053;50.832;12.882;2022-10-16T17:01:41;5.63;;;2.40;;
70715;SDS011;59053;50.832;12.882;2022-10-16T17:04:10;8.05;;;2.67;;
70715;SDS011;59053;50.832;12.882;2022-10-16T17:09:43;20.17;;;6.35;;
70715;SDS011;59053;50.832;12.882;2022-10-16T17:12:08;17.07;;;5.00;;
70715;SDS011;59053;50.832;12.882;2022-10-16T17:14:36;10.70;;;4.20;;
70715;SDS011;59053;50.832;12.882;2022-10-16T17:17:17;12.27;;;4.40;;
70715;SDS011;59053;50.832;12.882;2022-10-16T17:19:42;12.57;;;4.25;;
70715;SDS011;59053;50.832;12.882;2022-10-16T17:22:07;7.37;;;3.70;;
70715;SDS011;59053;50.832;12.882;2022-10-16T17:27:08;10.27;;;3.90;;
70715;SDS011;59053;50.832;12.882;2022-10-16T17:35:44;8.57;;;3.83;;
70715;SDS011;59053;50.832;12.882;2022-10-16T17:38:18;6.60;;;3.20;;
70715;SDS011;59053;50.832;12.882;2022-10-16T17:40:46;6.15;;;3.10;;
70715;SDS011;59053;50.832;12.882;2022-10-16T17:43:11;8.85;;;3.20;;
70715;SDS011;59053;50.832;12.882;2022-10-16T17:51:42;5.88;;;3.20;;
70715;SDS011;59053;50.832;12.882;2022-10-16T17:54:07;5.40;;;3.10;;
70715;SDS011;59053;50.832;12.882;2022-10-16T18:02:44;8.50;;;3.67;;
70715;SDS011;59053;50.832;12.882;2022-10-16T18:05:11;8.82;;;4.10;;
70715;SDS011;59053;50.832;12.882;2022-10-16T18:14:32;8.45;;;3.60;;
70715;SDS011;59053;50.832;12.882;2022-10-16T18:17:11;8.10;;;3.17;;
70715;SDS011;59053;50.832;12.882;2022-10-16T18:19:39;6.10;;;3.40;;
70715;SDS011;59053;50.832;12.882;2022-10-16T18:22:07;9.98;;;3.80;;
70715;SDS011;59053;50.832;12.882;2022-10-16T18:24:33;10.17;;;3.37;;
70715;SDS011;59053;50.832;12.882;2022-10-16T18:26:58;10.97;;;4.60;;
70715;SDS011;59053;50.832;12.882;2022-10-16T18:29:24;7.33;;;4.10;;
70715;SDS011;59053;50.832;12.882;2022-10-16T18:31:49;9.48;;;5.05;;
70715;SDS011;59053;50.832;12.882;2022-10-16T18:37:21;10.37;;;4.60;;
70715;SDS011;59053;50.832;12.882;2022-10-16T18:39:46;9.02;;;4.38;;
70715;SDS011;59053;50.832;12.882;2022-10-16T18:51:25;10.65;;;4.93;;
70715;SDS011;59053;50.832;12.882;2022-10-16T18:53:54;8.77;;;5.18;;
70715;SDS011;59053;50.832;12.882;2022-10-16T18:56:20;9.70;;;5.37;;
70715;SDS011;59053;50.832;12.882;2022-10-16T19:01:43;12.20;;;5.25;;
70715;SDS011;59053;50.832;12.882;2022-10-16T19:04:18;9.67;;;4.97;;
70715;SDS011;59053;50.832;12.882;2022-10-16T19:06:46;12.13;;;5.32;;
70715;SDS011;59053;50.832;12.882;2022-10-16T19:19:10;11.00;;;6.20;;
70715;SDS011;59053;50.832;12.882;2022-10-16T19:33:38;12.67;;;6.20;;
70715;SDS011;59053;50.832;12.882;2022-10-16T19:38:46;12.15;;;6.57;;
70715;SDS011;59053;50.832;12.882;2022-10-16T19:41:17;13.07;;;7.28;;
70715;SDS011;59053;50.832;12.882;2022-10-16T19:44:01;10.87;;;6.50;;
70715;SDS011;59053;50.832;12.882;2022-10-16T19:46:33;10.70;;;6.80;;
70715;SDS011;59053;50.832;12.882;2022-10-16T19:52:26;11.48;;;6.20;;
70715;SDS011;59053;50.832;12.882;2022-10-16T19:54:53;11.57;;;6.53;;
70715;SDS011;59053;50.832;12.882;2022-10-16T19:57:22;17.10;;;7.28;;
70715;SDS011;59053;50.832;12.882;2022-10-16T20:02:37;12.40;;;6.60;;
70715;SDS011;59053;50.832;12.882;2022-10-16T20:05:02;11.97;;;6.40;;
70715;SDS011;59053;50.832;12.882;2022-10-16T20:10:28;14.47;;;7.40;;
70715;SDS011;59053;50.832;12.882;2022-10-16T20:12:53;12.75;;;7.38;;
70715;SDS011;59053;50.832;12.882;2022-10-16T20:15:19;12.80;;;7.00;;
70715;SDS011;59053;50.832;12.882;2022-10-16T20:20:49;12.93;;;7.07;;
70715;SDS011;59053;50.832;12.882;2022-10-16T20:23:18;12.93;;;7.00;;
70715;SDS011;59053;50.832;12.882;2022-10-16T20:25:52;12.47;;;6.80;;
70715;SDS011;59053;50.832;12.882;2022-10-16T20:28:18;19.02;;;7.43;;
70715;SDS011;59053;50.832;12.882;2022-10-16T20:30:46;12.80;;;7.10;;
70715;SDS011;59053;50.832;12.882;2022-10-16T20:42:54;17.10;;;7.50;;
70715;SDS011;59053;50.832;12.882;2022-10-16T20:45:20;16.23;;;7.65;;
70715;SDS011;59053;50.832;12.882;2022-10-16T20:50:35;13.70;;;7.43;;
70715;SDS011;59053;50.832;12.882;2022-10-16T20:55:43;14.57;;;7.53;;
70715;SDS011;59053;50.832;12.882;2022-10-16T20:58:08;15.87;;;7.47;;
70715;SDS011;59053;50.832;12.882;2022-10-16T21:00:47;15.63;;;7.75;;
70715;SDS011;59053;50.832;12.882;2022-10-16T21:03:12;15.77;;;7.28;;
70715;SDS011;59053;50.832;12.882;2022-10-16T21:05:40;12.93;;;7.37;;
70715;SDS011;59053;50.832;12.882;2022-10-16T21:08:18;15.30;;;7.28;;
70715;SDS011;59053;50.832;12.882;2022-10-16T21:10:43;17.63;;;8.20;;
70715;SDS011;59053;50.832;12.882;2022-10-16T21:13:09;13.93;;;7.63;;
70715;SDS011;59053;50.832;12.882;2022-10-16T21:15:52;13.93;;;7.40;;
70715;SDS011;59053;50.832;12.882;2022-10-16T21:18:18;15.90;;;7.80;;
70715;SDS011;59053;50.832;12.882;2022-10-16T21:20:43;15.10;;;7.40;;
70715;SDS011;59053;50.832;12.882;2022-10-16T21:23:09;13.43;;;7.30;;
70715;SDS011;59053;50.832;12.882;2022-10-16T21:25:34;14.77;;;7.30;;
70715;SDS011;59053;50.832;12.882;2022-10-16T21:28:00;15.50;;;6.80;;
70715;SDS011;59053;50.832;12.882;2022-10-16T21:30:25;13.17;;;7.17;;
70715;SDS011;59053;50.832;12.882;2022-10-16T21:32:50;15.87;;;6.83;;
70715;SDS011;59053;50.832;12.882;2022-10-16T21:35:15;13.25;;;6.90;;
70715;SDS011;59053;50.832;12.882;2022-10-16T21:37:42;13.33;;;6.80;;
70715;SDS011;59053;50.832;12.882;2022-10-16T21:40:07;12.13;;;6.78;;
70715;SDS011;59053;50.832;12.882;2022-10-16T21:42:32;17.27;;;7.07;;
70715;SDS011;59053;50.832;12.882;2022-10-16T21:44:58;12.03;;;7.30;;
70715;SDS011;59053;50.832;12.882;2022-10-16T21:47:23;14.23;;;7.20;;
70715;SDS011;59053;50.832;12.882;2022-10-16T21:49:50;16.13;;;7.00;;
70715;SDS011;59053;50.832;12.882;2022-10-16T21:52:15;11.48;;;6.60;;